createdAt,value
2018-04-23T00:02:04.379Z,7.07
2018-04-23T00:04:31.865Z,6.23
2018-04-23T00:06:59.426Z,5.00
2018-04-23T00:09:26.946Z,6.57
2018-04-23T00:11:54.432Z,5.47
2018-04-23T00:14:21.923Z,8.57
2018-04-23T00:16:49.449Z,6.77
2018-04-23T00:19:16.936Z,6.77
2018-04-23T00:21:44.438Z,7.33
2018-04-23T00:24:11.905Z,5.80
2018-04-23T00:26:39.383Z,6.60
2018-04-23T00:29:07.058Z,5.80
2018-04-23T00:31:34.672Z,6.33
2018-04-23T00:34:02.155Z,5.33
2018-04-23T00:36:29.626Z,6.13
2018-04-23T00:38:57.256Z,6.47
2018-04-23T00:41:24.754Z,6.93
2018-04-23T00:43:52.230Z,8.83
2018-04-23T00:46:19.719Z,8.23
2018-04-23T00:48:47.213Z,6.03
2018-04-23T00:51:14.845Z,6.60
2018-04-23T00:53:42.306Z,7.17
2018-04-23T00:56:09.772Z,7.57
2018-04-23T00:58:37.252Z,8.83
2018-04-23T01:01:04.788Z,7.83
2018-04-23T01:03:32.250Z,8.10
2018-04-23T01:05:59.735Z,8.80
2018-04-23T01:08:27.217Z,6.93
2018-04-23T01:10:54.752Z,6.37
2018-04-23T01:13:22.219Z,7.87
2018-04-23T01:15:49.720Z,7.00
2018-04-23T01:18:17.218Z,7.80
2018-04-23T01:20:44.698Z,5.97
2018-04-23T01:23:12.269Z,8.30
2018-04-23T01:25:39.774Z,6.87
2018-04-23T01:28:07.263Z,8.10
2018-04-23T01:30:34.773Z,7.53
2018-04-23T01:33:02.241Z,7.87
2018-04-23T01:35:29.753Z,7.67
2018-04-23T01:37:57.245Z,7.70
2018-04-23T01:40:24.731Z,7.13
2018-04-23T01:42:52.233Z,6.80
2018-04-23T01:45:19.725Z,7.07
2018-04-23T01:47:47.215Z,6.87
2018-04-23T01:50:14.687Z,7.60
2018-04-23T01:52:42.162Z,6.50
2018-04-23T01:55:09.772Z,7.30
2018-04-23T01:57:37.317Z,5.80
2018-04-23T02:00:04.879Z,6.07
2018-04-23T02:02:32.350Z,12.27
2018-04-23T02:04:59.822Z,6.07
2018-04-23T02:07:27.298Z,6.63
2018-04-23T02:09:54.786Z,5.87
2018-04-23T02:12:22.676Z,8.37
2018-04-23T02:14:50.212Z,5.90
2018-04-23T02:17:17.674Z,11.30
2018-04-23T02:19:45.158Z,6.10
2018-04-23T02:22:12.656Z,9.87
2018-04-23T02:24:40.202Z,6.97
2018-04-23T02:27:07.730Z,6.07
2018-04-23T02:29:35.220Z,6.83
2018-04-23T02:32:02.703Z,5.97
2018-04-23T02:34:30.166Z,6.47
2018-04-23T02:36:57.677Z,7.03
2018-04-23T02:39:25.167Z,5.67
2018-04-23T02:41:52.708Z,5.53
2018-04-23T02:44:20.210Z,5.33
2018-04-23T02:46:47.762Z,6.23
2018-04-23T02:49:15.247Z,8.20
2018-04-23T02:51:42.723Z,5.63
2018-04-23T02:54:10.205Z,5.50
2018-04-23T02:56:37.702Z,6.73
2018-04-23T02:59:05.192Z,5.90
2018-04-23T03:01:32.754Z,7.27
2018-04-23T03:04:00.221Z,7.93
2018-04-23T03:06:27.679Z,6.07
2018-04-23T03:08:55.270Z,8.80
2018-04-23T03:11:22.762Z,5.70
2018-04-23T03:13:50.264Z,6.17
2018-04-23T03:16:17.750Z,7.47
2018-04-23T03:18:45.236Z,6.70
2018-04-23T03:21:12.700Z,7.53
2018-04-23T03:23:40.163Z,7.13
2018-04-23T03:26:07.646Z,8.70
2018-04-23T03:28:35.145Z,6.20
2018-04-23T03:31:02.610Z,5.93
2018-04-23T03:33:30.127Z,8.90
2018-04-23T03:35:57.598Z,6.33
2018-04-23T03:38:25.082Z,6.07
2018-04-23T03:40:52.573Z,6.77
2018-04-23T03:43:20.041Z,9.77
2018-04-23T03:45:47.536Z,6.43
2018-04-23T03:48:15.204Z,6.17
2018-04-23T03:50:42.744Z,7.87
2018-04-23T03:53:10.221Z,7.47
2018-04-23T03:55:37.906Z,7.43
2018-04-23T03:58:05.412Z,6.70
2018-04-23T04:00:33.276Z,9.17
2018-04-23T04:03:00.764Z,9.40
2018-04-23T04:05:28.244Z,7.73
2018-04-23T04:07:55.737Z,10.37
2018-04-23T04:10:23.212Z,7.20
2018-04-23T04:13:02.517Z,8.50
2018-04-23T04:15:41.869Z,8.63
2018-04-23T04:21:10.322Z,8.20
2018-04-23T04:23:37.809Z,6.50
2018-04-23T04:26:05.318Z,12.10
2018-04-23T04:28:32.793Z,9.93
2018-04-23T04:31:00.283Z,10.10
2018-04-23T04:33:27.766Z,13.67
2018-04-23T04:35:55.269Z,10.47
2018-04-23T04:38:22.756Z,11.60
2018-04-23T04:40:50.263Z,10.70
2018-04-23T04:43:17.752Z,11.00
2018-04-23T04:45:45.230Z,11.57
2018-04-23T04:48:12.708Z,13.23
2018-04-23T04:50:40.195Z,13.17
2018-04-23T04:53:07.695Z,12.63
2018-04-23T04:55:35.179Z,14.17
2018-04-23T04:58:02.687Z,10.97
2018-04-23T05:00:30.310Z,10.77
2018-04-23T05:02:57.793Z,9.97
2018-04-23T05:05:25.303Z,15.40
2018-04-23T05:07:52.770Z,13.97
2018-04-23T05:10:20.248Z,11.77
2018-04-23T05:12:47.749Z,10.40
2018-04-23T05:15:15.265Z,9.93
2018-04-23T05:20:33.278Z,10.83
2018-04-23T05:23:00.751Z,10.13
2018-04-23T05:25:28.240Z,12.23
2018-04-23T05:27:55.733Z,11.70
2018-04-23T05:30:23.222Z,9.57
2018-04-23T05:32:50.724Z,13.10
2018-04-23T05:35:18.206Z,12.23
2018-04-23T05:37:45.701Z,13.20
2018-04-23T05:40:13.172Z,9.97
2018-04-23T05:42:40.648Z,12.50
2018-04-23T05:45:08.118Z,10.13
2018-04-23T05:47:35.584Z,14.77
2018-04-23T05:50:03.094Z,9.97
2018-04-23T05:52:30.719Z,9.87
2018-04-23T05:54:58.240Z,12.47
2018-04-23T05:57:25.736Z,12.93
2018-04-23T05:59:53.250Z,10.87
2018-04-23T06:02:20.729Z,9.37
2018-04-23T06:04:48.199Z,8.87
2018-04-23T06:07:15.698Z,9.77
2018-04-23T06:09:43.190Z,13.53
2018-04-23T06:12:10.701Z,9.63
2018-04-23T06:14:38.174Z,9.67
2018-04-23T06:17:05.662Z,9.57
2018-04-23T06:19:33.157Z,7.00
2018-04-23T06:22:00.783Z,8.93
2018-04-23T06:24:28.274Z,7.83
2018-04-23T06:26:55.762Z,6.80
2018-04-23T06:29:23.245Z,7.67
2018-04-23T06:31:50.776Z,10.30
2018-04-23T06:34:18.275Z,8.27
2018-04-23T06:36:45.747Z,8.70
2018-04-23T06:39:13.230Z,7.70
2018-04-23T06:41:40.700Z,7.77
2018-04-23T06:44:08.165Z,8.37
2018-04-23T06:46:35.682Z,9.33
2018-04-23T06:49:03.183Z,8.07
2018-04-23T06:51:30.679Z,7.37
2018-04-23T06:53:58.173Z,6.87
2018-04-23T06:56:25.645Z,8.97
2018-04-23T06:58:53.128Z,9.27
2018-04-23T07:01:20.656Z,7.53
2018-04-23T07:03:48.133Z,9.07
2018-04-23T07:06:15.592Z,7.63
2018-04-23T07:08:43.136Z,8.90
2018-04-23T07:11:10.600Z,13.27
2018-04-23T07:13:38.076Z,9.90
2018-04-23T07:16:05.558Z,7.30
2018-04-23T07:18:33.040Z,10.07
2018-04-23T07:21:00.579Z,8.90
2018-04-23T07:23:28.076Z,9.10
2018-04-23T07:25:55.579Z,7.77
2018-04-23T07:28:23.076Z,8.37
2018-04-23T07:30:50.663Z,10.47
2018-04-23T07:33:18.130Z,12.97
2018-04-23T07:35:45.687Z,10.97
2018-04-23T07:38:13.185Z,10.97
2018-04-23T07:40:40.694Z,11.03
2018-04-23T07:43:08.184Z,11.30
2018-04-23T07:45:35.668Z,11.37
2018-04-23T07:48:03.138Z,20.23
2018-04-23T07:50:30.618Z,20.20
2018-04-23T07:52:58.091Z,14.77
2018-04-23T07:55:25.586Z,12.53
2018-04-23T07:57:53.170Z,12.40
2018-04-23T08:00:20.649Z,16.77
2018-04-23T08:02:48.124Z,20.70
2018-04-23T08:05:15.632Z,18.77
2018-04-23T08:07:43.116Z,16.63
2018-04-23T08:10:10.653Z,14.20
2018-04-23T08:12:38.136Z,15.80
2018-04-23T08:15:05.628Z,11.13
2018-04-23T08:17:33.200Z,13.33
2018-04-23T08:20:00.684Z,12.20
2018-04-23T08:22:28.291Z,16.03
2018-04-23T08:24:55.759Z,17.13
2018-04-23T08:27:23.256Z,14.27
2018-04-23T08:29:50.735Z,11.97
2018-04-23T08:32:18.205Z,12.53
2018-04-23T08:34:45.680Z,11.90
2018-04-23T08:37:13.164Z,12.47
2018-04-23T08:39:40.622Z,9.20
2018-04-23T08:42:08.140Z,8.90
2018-04-23T08:44:35.776Z,10.07
2018-04-23T08:47:03.293Z,11.20
2018-04-23T08:49:30.759Z,7.23
2018-04-23T08:51:58.228Z,10.47
2018-04-23T08:54:25.716Z,10.47
2018-04-23T08:56:53.208Z,9.70
2018-04-23T08:59:20.688Z,11.53
2018-04-23T09:01:48.161Z,10.53
2018-04-23T09:04:15.626Z,9.20
2018-04-23T09:06:43.123Z,10.73
2018-04-23T09:09:10.686Z,7.60
2018-04-23T09:11:38.210Z,9.10
2018-04-23T09:14:05.661Z,10.13
2018-04-23T09:16:33.120Z,7.93
2018-04-23T09:19:00.585Z,8.77
2018-04-23T09:21:28.053Z,7.70
2018-04-23T09:23:55.525Z,7.73
2018-04-23T09:26:22.997Z,7.33
2018-04-23T09:28:50.496Z,9.10
2018-04-23T09:31:17.958Z,7.80
2018-04-23T09:33:45.432Z,9.17
2018-04-23T09:36:17.791Z,9.13
2018-04-23T09:38:45.275Z,5.80
2018-04-23T09:41:12.752Z,6.57
2018-04-23T09:43:40.238Z,7.40
2018-04-23T09:46:07.720Z,7.17
2018-04-23T09:48:35.198Z,10.67
2018-04-23T09:51:02.690Z,9.40
2018-04-23T09:53:30.154Z,7.87
2018-04-23T09:55:57.614Z,6.23
2018-04-23T09:58:25.094Z,7.40
2018-04-23T10:00:52.800Z,5.43
2018-04-23T10:03:20.281Z,6.57
2018-04-23T10:05:47.765Z,6.93
2018-04-23T10:08:15.238Z,5.57
2018-04-23T10:10:42.732Z,6.83
2018-04-23T10:13:10.202Z,5.97
2018-04-23T10:15:38.006Z,5.70
2018-04-23T10:18:05.483Z,7.97
2018-04-23T10:20:32.998Z,6.20
2018-04-23T10:23:00.509Z,6.77
2018-04-23T10:25:28.022Z,6.57
2018-04-23T10:27:55.474Z,6.80
2018-04-23T10:30:23.026Z,6.47
2018-04-23T10:32:50.530Z,6.83
2018-04-23T10:35:18.034Z,5.90
2018-04-23T10:37:45.530Z,8.20
2018-04-23T10:40:13.006Z,8.80
2018-04-23T10:42:40.470Z,5.60
2018-04-23T10:45:07.965Z,5.03
2018-04-23T10:47:35.457Z,7.90
2018-04-23T10:50:02.953Z,8.07
2018-04-23T10:52:30.439Z,6.03
2018-04-23T10:54:58.022Z,6.37
2018-04-23T10:57:25.490Z,8.17
2018-04-23T10:59:52.965Z,7.60
2018-04-23T11:02:20.454Z,4.67
2018-04-23T11:04:47.984Z,5.23
2018-04-23T11:07:15.459Z,6.87
2018-04-23T11:09:43.025Z,6.73
2018-04-23T11:12:10.508Z,5.73
2018-04-23T11:14:38.378Z,9.00
2018-04-23T11:17:05.961Z,9.03
2018-04-23T11:19:33.450Z,5.83
2018-04-23T11:22:00.933Z,8.73
2018-04-23T11:24:28.418Z,4.73
2018-04-23T11:26:56.181Z,5.50
2018-04-23T11:29:23.684Z,6.27
2018-04-23T11:31:51.162Z,7.93
2018-04-23T11:34:18.691Z,9.30
2018-04-23T11:36:46.214Z,6.67
2018-04-23T11:39:13.690Z,6.70
2018-04-23T11:41:41.165Z,7.80
2018-04-23T11:44:08.732Z,7.73
2018-04-23T11:46:36.223Z,5.47
2018-04-23T11:49:03.696Z,7.17
2018-04-23T11:51:31.171Z,5.37
2018-04-23T11:53:58.632Z,4.87
2018-04-23T11:56:26.099Z,6.20
2018-04-23T11:58:53.593Z,4.43
2018-04-23T12:01:21.103Z,5.97
2018-04-23T12:03:48.579Z,6.40
2018-04-23T12:06:16.054Z,8.90
2018-04-23T12:08:43.533Z,5.50
2018-04-23T12:11:11.022Z,9.10
2018-04-23T12:13:38.508Z,6.60
2018-04-23T12:16:05.981Z,10.03
2018-04-23T12:18:33.478Z,7.17
2018-04-23T12:21:00.997Z,9.03
2018-04-23T12:23:28.550Z,6.37
2018-04-23T12:25:56.040Z,10.80
2018-04-23T12:28:23.536Z,10.53
2018-04-23T12:30:51.165Z,10.07
2018-04-23T12:33:18.648Z,8.73
2018-04-23T12:35:46.150Z,10.43
2018-04-23T12:38:13.636Z,12.50
2018-04-23T12:40:41.135Z,8.70
2018-04-23T12:43:08.604Z,7.90
2018-04-23T12:45:36.088Z,13.13
2018-04-23T12:48:03.576Z,8.80
2018-04-23T12:50:31.037Z,8.50
2018-04-23T12:52:58.589Z,9.60
2018-04-23T12:55:26.042Z,12.93
2018-04-23T12:57:53.525Z,11.50
2018-04-23T13:00:20.982Z,8.10
2018-04-23T13:02:48.450Z,10.57
2018-04-23T13:05:15.909Z,9.20
2018-04-23T13:07:43.506Z,8.07
2018-04-23T13:10:10.976Z,13.97
2018-04-23T13:12:40.583Z,12.37
2018-04-23T13:15:08.147Z,9.93
2018-04-23T13:17:35.628Z,9.53
2018-04-23T13:20:03.129Z,9.17
2018-04-23T13:22:30.587Z,8.90
2018-04-23T13:24:58.209Z,9.80
2018-04-23T13:27:25.780Z,9.60
2018-04-23T13:29:53.243Z,9.97
2018-04-23T13:32:20.751Z,10.27
2018-04-23T13:34:48.224Z,13.07
2018-04-23T13:37:15.699Z,11.87
2018-04-23T13:39:43.182Z,12.27
2018-04-23T13:42:10.687Z,10.43
2018-04-23T13:44:38.262Z,9.97
2018-04-23T13:47:05.754Z,6.80
2018-04-23T13:49:33.245Z,10.65
2018-04-23T13:52:00.926Z,10.85
2018-04-23T13:54:28.431Z,9.05
2018-04-23T13:56:55.962Z,11.75
2018-04-23T13:59:23.559Z,10.60
2018-04-23T14:01:51.499Z,7.32
2018-04-23T14:04:19.121Z,10.50
2018-04-23T14:06:46.635Z,8.20
2018-04-23T14:09:14.165Z,10.65
2018-04-23T14:11:41.606Z,11.82
2018-04-23T14:14:21.862Z,9.48
2018-04-23T14:16:52.312Z,10.43
2018-04-23T14:19:37.996Z,8.95
2018-04-23T14:22:13.536Z,7.90
2018-04-23T14:24:41.089Z,9.05
2018-04-23T14:27:09.562Z,8.18
2018-04-23T14:29:37.045Z,11.40
2018-04-23T14:32:04.627Z,7.65
2018-04-23T14:34:32.112Z,9.85
2018-04-23T14:36:59.600Z,10.40
2018-04-23T14:39:27.115Z,7.15
2018-04-23T14:41:54.611Z,8.98
2018-04-23T14:44:22.130Z,9.43
2018-04-23T14:46:49.590Z,8.88
2018-04-23T14:49:17.098Z,10.75
2018-04-23T14:51:44.649Z,11.30
2018-04-23T14:54:12.135Z,9.77
2018-04-23T14:56:46.653Z,12.13
2018-04-23T14:59:14.166Z,9.57
2018-04-23T15:01:41.762Z,14.32
2018-04-23T15:04:09.376Z,13.62
2018-04-23T15:06:37.458Z,9.57
2018-04-23T15:09:04.942Z,12.30
2018-04-23T15:11:32.629Z,10.05
2018-04-23T15:19:41.434Z,9.82
2018-04-23T15:22:08.930Z,9.18
2018-04-23T15:24:37.485Z,9.40
2018-04-23T15:27:05.000Z,9.90
2018-04-23T15:29:32.474Z,9.65
2018-04-23T15:32:00.645Z,10.73
2018-04-23T15:34:28.162Z,9.25
2018-04-23T15:36:56.272Z,9.63
2018-04-23T15:39:23.833Z,10.13
2018-04-23T15:41:51.403Z,9.20
2018-04-23T15:44:19.169Z,10.30
2018-04-23T15:46:46.824Z,12.47
2018-04-23T15:49:14.385Z,9.90
2018-04-23T15:51:41.867Z,9.93
2018-04-23T15:54:09.359Z,11.80
2018-04-23T15:56:36.921Z,13.07
2018-04-23T15:59:04.419Z,11.37
2018-04-23T16:01:31.933Z,13.33
2018-04-23T16:03:59.471Z,10.37
2018-04-23T16:06:27.014Z,14.83
2018-04-23T16:08:55.254Z,10.80
2018-04-23T16:11:23.906Z,12.27
2018-04-23T16:13:51.520Z,9.50
2018-04-23T16:16:18.993Z,12.53
2018-04-23T16:18:46.479Z,8.13
2018-04-23T16:21:13.985Z,10.77
2018-04-23T16:23:41.569Z,10.70
2018-04-23T16:26:09.183Z,9.03
2018-04-23T16:28:36.704Z,9.13
2018-04-23T16:31:04.308Z,10.07
2018-04-23T16:33:31.862Z,9.63
2018-04-23T16:35:59.373Z,11.67
2018-04-23T16:38:26.872Z,9.53
2018-04-23T16:40:54.513Z,10.43
2018-04-23T16:43:22.024Z,8.37
2018-04-23T16:45:49.503Z,9.63
2018-04-23T16:48:16.961Z,11.67
2018-04-23T16:50:44.450Z,10.17
2018-04-23T16:53:12.062Z,8.27
2018-04-23T16:55:39.640Z,8.37
2018-04-23T16:58:07.155Z,9.83
2018-04-23T17:00:34.955Z,9.17
2018-04-23T17:03:02.408Z,8.73
2018-04-23T17:05:32.639Z,9.17
2018-04-23T17:08:00.223Z,8.67
2018-04-23T17:10:33.582Z,8.80
2018-04-23T17:13:04.138Z,10.80
2018-04-23T17:15:31.782Z,7.80
2018-04-23T17:18:15.866Z,10.33
2018-04-23T17:20:53.061Z,6.90
2018-04-23T17:23:28.676Z,12.70
2018-04-23T17:25:59.418Z,10.50
2018-04-23T17:28:30.794Z,7.37
2018-04-23T17:31:13.760Z,9.03
2018-04-23T17:33:44.506Z,8.90
2018-04-23T17:36:25.397Z,8.67
2018-04-23T17:38:55.295Z,8.73
2018-04-23T17:41:25.237Z,10.33
2018-04-23T17:43:53.823Z,9.10
2018-04-23T17:46:32.714Z,9.63
2018-04-23T17:49:00.792Z,10.20
2018-04-23T17:51:28.263Z,8.47
2018-04-23T17:53:59.893Z,10.23
2018-04-23T17:56:27.486Z,15.47
2018-04-23T17:58:55.558Z,13.00
2018-04-23T18:01:23.137Z,15.07
2018-04-23T18:03:50.615Z,12.00
2018-04-23T18:06:19.076Z,9.70
2018-04-23T18:08:46.566Z,18.40
2018-04-23T18:11:14.033Z,10.97
2018-04-23T18:13:41.491Z,19.93
2018-04-23T18:16:08.968Z,14.90
2018-04-23T18:18:36.458Z,16.80
2018-04-23T18:21:04.433Z,15.40
2018-04-23T18:23:31.911Z,13.10
2018-04-23T18:25:59.476Z,10.43
2018-04-23T18:28:27.198Z,10.57
2018-04-23T18:30:54.686Z,15.93
2018-04-23T18:33:22.166Z,12.07
2018-04-23T18:35:50.268Z,20.33
2018-04-23T18:38:17.845Z,18.73
2018-04-23T18:40:45.515Z,12.00
2018-04-23T18:43:13.138Z,14.90
2018-04-23T18:45:40.660Z,17.13
2018-04-23T18:48:08.265Z,15.43
2018-04-23T18:50:35.780Z,13.50
2018-04-23T18:53:03.384Z,16.27
2018-04-23T18:55:31.003Z,10.90
2018-04-23T18:57:58.617Z,12.77
2018-04-23T19:00:26.149Z,9.13
2018-04-23T19:02:53.630Z,11.90
2018-04-23T19:05:21.126Z,12.70
2018-04-23T19:07:48.611Z,9.53
2018-04-23T19:10:16.686Z,11.67
2018-04-23T19:12:44.316Z,9.83
2018-04-23T19:15:11.873Z,11.43
2018-04-23T19:17:39.402Z,11.33
2018-04-23T19:20:07.238Z,11.27
2018-04-23T19:22:34.763Z,9.33
2018-04-23T19:25:02.273Z,9.73
2018-04-23T19:27:29.752Z,10.77
2018-04-23T19:29:57.367Z,9.70
2018-04-23T19:32:24.979Z,11.57
2018-04-23T19:34:52.845Z,7.80
2018-04-23T19:37:20.543Z,10.00
2018-04-23T19:39:48.025Z,8.17
2018-04-23T19:42:15.698Z,9.60
2018-04-23T19:44:43.204Z,9.90
2018-04-23T19:47:10.861Z,10.30
2018-04-23T19:49:38.370Z,10.37
2018-04-23T19:52:05.920Z,8.37
2018-04-23T19:54:33.387Z,13.60
2018-04-23T19:57:00.873Z,10.27
2018-04-23T19:59:28.459Z,7.57
2018-04-23T20:01:55.961Z,9.80
2018-04-23T20:04:23.414Z,8.97
2018-04-23T20:06:50.910Z,8.27
2018-04-23T20:09:18.522Z,11.00
2018-04-23T20:11:46.074Z,10.63
2018-04-23T20:14:13.633Z,10.40
2018-04-23T20:16:41.234Z,12.73
2018-04-23T20:19:08.835Z,10.13
2018-04-23T20:21:36.377Z,11.30
2018-04-23T20:24:03.899Z,11.70
2018-04-23T20:26:31.585Z,10.47
2018-04-23T20:28:59.146Z,10.10
2018-04-23T20:31:26.723Z,10.67
2018-04-23T20:33:54.241Z,12.30
2018-04-23T20:36:21.851Z,10.03
2018-04-23T20:38:49.370Z,9.37
2018-04-23T20:41:16.888Z,11.53
2018-04-23T20:43:44.449Z,10.80
2018-04-23T20:46:11.952Z,10.27
2018-04-23T20:48:39.477Z,9.67
2018-04-23T20:51:07.011Z,11.53
2018-04-23T20:53:34.515Z,9.27
2018-04-23T20:56:02.093Z,10.17
2018-04-23T20:58:29.790Z,9.83
2018-04-23T21:00:57.333Z,15.67
2018-04-23T21:03:24.820Z,9.20
2018-04-23T21:05:52.325Z,10.23
2018-04-23T21:08:19.817Z,9.00
2018-04-23T21:10:47.301Z,12.17
2018-04-23T21:13:14.774Z,11.87
2018-04-23T21:15:42.285Z,11.47
2018-04-23T21:18:10.761Z,8.70
2018-04-23T21:20:38.239Z,9.50
2018-04-23T21:23:05.696Z,13.40
2018-04-23T21:25:33.200Z,10.90
2018-04-23T21:28:00.700Z,14.53
2018-04-23T21:30:29.990Z,10.90
2018-04-23T21:32:57.454Z,12.87
2018-04-23T21:35:25.051Z,10.73
2018-04-23T21:37:52.558Z,10.40
2018-04-23T21:40:20.072Z,9.47
2018-04-23T21:42:47.621Z,8.60
2018-04-23T21:45:15.139Z,10.40
2018-04-23T21:47:42.716Z,13.93
2018-04-23T21:50:10.202Z,9.40
2018-04-23T21:52:37.708Z,11.10
2018-04-23T21:55:05.188Z,11.37
2018-04-23T21:57:32.692Z,10.03
2018-04-23T22:00:00.160Z,10.60
2018-04-23T22:02:27.696Z,10.33
2018-04-23T22:04:55.284Z,10.07
2018-04-23T22:07:22.921Z,8.90
2018-04-23T22:09:50.640Z,9.03
2018-04-23T22:12:18.165Z,8.87
2018-04-23T22:14:45.754Z,9.30
2018-04-23T22:17:13.325Z,11.77
2018-04-23T22:19:40.874Z,7.27
2018-04-23T22:22:09.509Z,9.87
2018-04-23T22:24:37.151Z,8.10
2018-04-23T22:27:04.719Z,11.00
2018-04-23T22:29:32.316Z,9.00
2018-04-23T22:31:59.960Z,9.37
2018-04-23T22:34:27.479Z,11.40
2018-04-23T22:36:55.000Z,8.30
2018-04-23T22:39:22.540Z,10.70
2018-04-23T22:41:50.281Z,10.53
2018-04-23T22:44:17.950Z,10.10
2018-04-23T22:46:45.513Z,10.13
2018-04-23T22:49:13.062Z,9.20
2018-04-23T22:51:40.589Z,10.43
2018-04-23T22:54:08.327Z,9.70
2018-04-23T22:56:35.870Z,8.13
2018-04-23T22:59:03.400Z,9.63
2018-04-23T23:01:30.955Z,8.47
2018-04-23T23:03:58.483Z,10.80
2018-04-23T23:06:26.023Z,11.13
2018-04-23T23:08:53.728Z,6.60
2018-04-23T23:11:21.246Z,9.37
2018-04-23T23:13:49.126Z,9.47
2018-04-23T23:16:16.673Z,8.73
2018-04-23T23:18:44.205Z,7.93
2018-04-23T23:21:11.716Z,6.13
2018-04-23T23:23:39.265Z,8.57
2018-04-23T23:26:06.823Z,6.90
2018-04-23T23:28:34.368Z,10.00
2018-04-23T23:31:01.932Z,7.73
2018-04-23T23:33:29.457Z,6.83
2018-04-23T23:35:57.279Z,7.77
2018-04-23T23:38:24.951Z,10.63
2018-04-23T23:40:52.539Z,9.47
2018-04-23T23:43:20.103Z,8.43
2018-04-23T23:45:47.647Z,9.27
2018-04-23T23:48:15.141Z,8.90
2018-04-23T23:50:42.619Z,8.00
2018-04-23T23:53:10.129Z,9.40
2018-04-23T23:55:37.612Z,8.30
2018-04-23T23:58:05.073Z,10.67
